createdAt,value
2018-11-28T00:01:48.393Z,3.40
2018-11-28T00:04:16.738Z,3.72
2018-11-28T00:06:45.442Z,3.40
2018-11-28T00:09:13.194Z,3.22
2018-11-28T00:11:41.254Z,2.95
2018-11-28T00:14:09.245Z,3.72
2018-11-28T00:16:37.225Z,4.33
2018-11-28T00:19:05.323Z,3.92
2018-11-28T00:21:33.426Z,4.72
2018-11-28T00:24:01.167Z,6.35
2018-11-28T00:26:29.172Z,6.33
2018-11-28T00:28:57.451Z,5.03
2018-11-28T00:31:25.411Z,5.47
2018-11-28T00:33:53.577Z,5.90
2018-11-28T00:36:21.882Z,6.17
2018-11-28T00:38:49.629Z,3.10
2018-11-28T00:41:18.059Z,2.33
2018-11-28T00:43:46.280Z,2.30
2018-11-28T00:46:14.242Z,2.47
2018-11-28T00:48:42.124Z,1.45
2018-11-28T00:51:10.011Z,1.30
2018-11-28T00:53:37.978Z,1.40
2018-11-28T00:56:06.078Z,1.10
2018-11-28T00:58:34.615Z,1.95
2018-11-28T01:01:02.590Z,0.98
2018-11-28T01:03:30.556Z,1.02
2018-11-28T01:05:58.425Z,1.30
2018-11-28T01:08:26.390Z,1.27
2018-11-28T01:10:54.355Z,1.45
2018-11-28T01:13:22.795Z,1.50
2018-11-28T01:15:51.003Z,1.90
2018-11-28T01:18:18.733Z,1.65
2018-11-28T01:20:46.747Z,1.40
2018-11-28T01:23:14.501Z,1.60
2018-11-28T01:25:42.481Z,1.62
2018-11-28T01:28:10.433Z,1.87
2018-11-28T01:30:38.618Z,2.85
2018-11-28T01:33:06.587Z,3.72
2018-11-28T01:35:34.484Z,4.78
2018-11-28T01:38:02.311Z,4.70
2018-11-28T01:40:30.510Z,4.97
2018-11-28T01:42:58.471Z,4.67
2018-11-28T01:45:27.054Z,4.10
2018-11-28T01:47:55.326Z,3.25
2018-11-28T01:50:23.593Z,2.27
2018-11-28T01:52:51.935Z,1.67
2018-11-28T01:55:21.071Z,1.87
2018-11-28T01:57:49.327Z,1.98
2018-11-28T02:00:22.348Z,2.00
2018-11-28T02:02:53.845Z,1.70
2018-11-28T02:05:21.994Z,1.80
2018-11-28T02:07:50.127Z,1.60
2018-11-28T02:10:18.177Z,1.37
2018-11-28T02:12:46.287Z,2.02
2018-11-28T02:15:16.407Z,1.45
2018-11-28T02:17:44.555Z,1.40
2018-11-28T02:20:13.758Z,1.10
2018-11-28T02:22:41.911Z,0.65
2018-11-28T02:25:14.022Z,0.82
2018-11-28T02:27:42.079Z,0.62
2018-11-28T02:30:10.479Z,0.45
2018-11-28T02:32:38.469Z,0.70
2018-11-28T02:35:06.963Z,0.70
2018-11-28T02:37:35.173Z,0.80
2018-11-28T02:40:03.270Z,1.27
2018-11-28T02:42:31.244Z,0.60
2018-11-28T02:44:59.218Z,0.80
2018-11-28T02:47:27.467Z,0.50
2018-11-28T02:49:55.439Z,2.00
2018-11-28T02:52:23.305Z,1.25
2018-11-28T02:54:51.479Z,0.90
2018-11-28T02:57:19.766Z,0.98
2018-11-28T02:59:47.726Z,0.65
2018-11-28T03:02:15.893Z,2.08
2018-11-28T03:04:43.886Z,6.00
2018-11-28T03:07:12.027Z,5.55
2018-11-28T03:09:40.367Z,10.95
2018-11-28T03:12:08.306Z,9.18
2018-11-28T03:14:36.313Z,5.95
2018-11-28T03:17:04.451Z,3.98
2018-11-28T03:19:32.221Z,3.15
2018-11-28T03:22:00.193Z,2.77
2018-11-28T03:24:28.355Z,1.87
2018-11-28T03:26:56.328Z,2.37
2018-11-28T03:29:24.166Z,2.35
2018-11-28T03:31:52.365Z,2.72
2018-11-28T03:34:20.345Z,3.67
2018-11-28T03:36:48.134Z,5.15
2018-11-28T03:39:16.344Z,5.00
2018-11-28T03:41:46.311Z,5.05
2018-11-28T03:44:14.538Z,3.60
2018-11-28T03:46:42.511Z,2.33
2018-11-28T03:49:10.695Z,1.30
2018-11-28T03:51:40.666Z,1.00
2018-11-28T03:54:08.658Z,1.00
2018-11-28T03:56:36.733Z,1.07
2018-11-28T03:59:05.563Z,1.87
2018-11-28T04:01:33.699Z,2.37
2018-11-28T04:04:01.655Z,2.67
2018-11-28T04:06:29.414Z,3.50
2018-11-28T04:08:57.400Z,3.35
2018-11-28T04:11:25.378Z,7.50
2018-11-28T04:13:53.538Z,6.20
2018-11-28T04:16:21.410Z,4.65
2018-11-28T04:18:49.580Z,3.80
2018-11-28T04:21:17.547Z,3.70
2018-11-28T04:23:45.711Z,4.10
2018-11-28T04:26:14.027Z,4.47
2018-11-28T04:28:42.006Z,4.15
2018-11-28T04:31:09.963Z,4.30
2018-11-28T04:33:37.993Z,4.70
2018-11-28T04:36:05.749Z,5.62
2018-11-28T04:38:33.742Z,5.65
2018-11-28T04:41:02.015Z,4.90
2018-11-28T04:43:30.071Z,5.55
2018-11-28T04:45:58.150Z,4.50
2018-11-28T04:48:26.452Z,5.53
2018-11-28T04:50:54.429Z,3.25
2018-11-28T04:53:22.576Z,4.30
2018-11-28T04:55:50.879Z,3.60
2018-11-28T04:58:18.823Z,3.42
2018-11-28T05:00:46.826Z,4.62
2018-11-28T05:03:14.854Z,9.95
2018-11-28T05:05:42.818Z,5.60
2018-11-28T05:08:10.798Z,4.15
2018-11-28T05:10:38.893Z,5.03
2018-11-28T05:13:06.650Z,5.75
2018-11-28T05:15:34.630Z,5.70
2018-11-28T05:18:02.590Z,6.92
2018-11-28T05:20:32.582Z,6.10
2018-11-28T05:23:00.562Z,6.50
2018-11-28T05:25:29.075Z,5.42
2018-11-28T05:27:58.570Z,6.00
2018-11-28T05:30:29.603Z,8.15
2018-11-28T05:32:57.735Z,11.35
2018-11-28T05:35:40.046Z,10.35
2018-11-28T05:38:15.505Z,11.38
2018-11-28T05:40:44.257Z,14.70
2018-11-28T05:43:12.254Z,14.20
2018-11-28T05:45:40.539Z,17.80
2018-11-28T05:48:08.305Z,17.30
2018-11-28T05:50:36.295Z,10.80
2018-11-28T05:53:04.350Z,12.07
2018-11-28T05:55:32.385Z,13.35
2018-11-28T05:58:00.328Z,12.10
2018-11-28T06:00:34.875Z,12.37
2018-11-28T06:03:03.003Z,13.72
2018-11-28T06:05:31.011Z,15.15
2018-11-28T06:07:59.130Z,16.67
2018-11-28T06:10:26.878Z,13.48
2018-11-28T06:12:54.880Z,13.65
2018-11-28T06:15:22.834Z,12.80
2018-11-28T06:17:51.403Z,12.18
2018-11-28T06:20:21.319Z,8.98
2018-11-28T06:22:49.665Z,8.70
2018-11-28T06:25:17.635Z,5.78
2018-11-28T06:27:45.791Z,6.37
2018-11-28T06:30:18.782Z,7.25
2018-11-28T06:32:51.163Z,7.40
2018-11-28T06:35:15.190Z,6.42
2018-11-28T06:37:43.662Z,6.15
2018-11-28T06:40:13.113Z,5.65
2018-11-28T06:42:42.718Z,4.72
2018-11-28T06:45:17.955Z,5.55
2018-11-28T06:47:45.926Z,5.10
2018-11-28T06:50:14.955Z,6.30
2018-11-28T06:52:43.895Z,5.12
2018-11-28T06:55:13.641Z,5.90
2018-11-28T06:57:41.533Z,6.10
2018-11-28T07:00:14.338Z,6.00
2018-11-28T07:02:42.490Z,7.62
2018-11-28T07:05:10.831Z,6.70
2018-11-28T07:07:38.747Z,8.78
2018-11-28T07:10:08.505Z,7.75
2018-11-28T07:12:36.262Z,9.40
2018-11-28T07:15:04.753Z,12.10
2018-11-28T07:17:32.738Z,8.35
2018-11-28T07:20:00.834Z,7.47
2018-11-28T07:22:28.796Z,6.35
2018-11-28T07:24:56.562Z,6.87
2018-11-28T07:27:24.892Z,7.25
2018-11-28T07:29:53.102Z,7.40
2018-11-28T07:32:21.076Z,7.58
2018-11-28T07:34:49.262Z,7.55
2018-11-28T07:37:17.548Z,9.20
2018-11-28T07:39:45.498Z,8.60
2018-11-28T07:42:13.487Z,7.97
2018-11-28T07:44:41.574Z,7.70
2018-11-28T07:47:09.843Z,14.00
2018-11-28T07:49:37.796Z,7.85
2018-11-28T07:52:06.054Z,6.22
2018-11-28T07:54:34.030Z,7.90
2018-11-28T07:57:02.004Z,4.42
2018-11-28T07:59:30.750Z,5.08
2018-11-28T08:01:58.691Z,8.08
2018-11-28T08:04:26.741Z,6.03
2018-11-28T08:06:54.786Z,5.97
2018-11-28T08:09:23.071Z,6.22
2018-11-28T08:11:51.067Z,6.97
2018-11-28T08:14:19.222Z,6.08
2018-11-28T08:16:48.159Z,9.45
2018-11-28T08:19:15.359Z,11.12
2018-11-28T08:21:43.635Z,8.95
2018-11-28T08:24:11.406Z,9.58
2018-11-28T08:26:39.689Z,7.95
2018-11-28T08:29:07.226Z,8.73
2018-11-28T08:31:35.502Z,9.58
2018-11-28T08:34:03.499Z,12.07
2018-11-28T08:36:31.646Z,11.78
2018-11-28T08:38:59.964Z,10.55
2018-11-28T08:41:27.890Z,7.60
2018-11-28T08:43:56.066Z,7.37
2018-11-28T08:46:24.043Z,6.28
2018-11-28T08:48:52.266Z,6.00
2018-11-28T08:51:20.524Z,5.87
2018-11-28T08:53:48.552Z,5.40
2018-11-28T08:56:16.559Z,5.30
2018-11-28T08:58:44.895Z,4.12
2018-11-28T09:01:12.906Z,4.30
2018-11-28T09:03:41.046Z,4.78
2018-11-28T09:06:10.143Z,3.92
2018-11-28T09:08:38.822Z,5.00
2018-11-28T09:11:07.142Z,5.22
2018-11-28T09:13:35.094Z,5.40
2018-11-28T09:16:03.075Z,4.22
2018-11-28T09:18:31.131Z,5.10
2018-11-28T09:20:58.886Z,3.90
2018-11-28T09:23:26.875Z,3.52
2018-11-28T09:25:55.118Z,4.15
2018-11-28T09:28:23.442Z,4.95
2018-11-28T09:30:51.357Z,3.80
2018-11-28T09:33:19.326Z,5.45
2018-11-28T09:35:48.294Z,9.68
2018-11-28T09:38:16.047Z,9.65
2018-11-28T09:40:44.105Z,7.60
2018-11-28T09:43:12.246Z,5.10
2018-11-28T09:45:40.206Z,5.05
2018-11-28T09:48:08.078Z,4.62
2018-11-28T09:50:36.247Z,3.80
2018-11-28T09:53:04.715Z,8.33
2018-11-28T09:55:32.794Z,5.33
2018-11-28T09:58:00.770Z,4.72
2018-11-28T10:00:28.739Z,4.40
2018-11-28T10:03:03.198Z,4.80
2018-11-28T10:05:32.489Z,5.10
2018-11-28T10:08:00.862Z,4.60
2018-11-28T10:10:28.926Z,4.05
2018-11-28T10:12:57.455Z,4.45
2018-11-28T10:15:26.438Z,4.80
2018-11-28T10:17:54.421Z,5.10
2018-11-28T10:20:22.457Z,6.70
2018-11-28T10:22:50.938Z,4.83
2018-11-28T10:25:26.919Z,7.30
2018-11-28T10:27:57.247Z,7.40
2018-11-28T10:30:25.725Z,7.58
2018-11-28T10:32:54.212Z,9.05
2018-11-28T10:35:22.482Z,7.60
2018-11-28T10:37:51.518Z,6.30
2018-11-28T10:40:21.159Z,6.95
2018-11-28T10:42:53.251Z,6.83
2018-11-28T10:45:22.418Z,7.58
2018-11-28T10:47:50.793Z,7.05
2018-11-28T10:50:18.859Z,7.65
2018-11-28T10:52:46.857Z,7.70
2018-11-28T10:55:18.942Z,8.13
2018-11-28T10:57:47.216Z,6.90
2018-11-28T11:00:24.778Z,6.05
2018-11-28T11:02:58.532Z,5.55
2018-11-28T11:05:31.781Z,6.50
2018-11-28T11:08:05.437Z,5.50
2018-11-28T11:10:39.007Z,6.55
2018-11-28T11:13:12.678Z,8.18
2018-11-28T11:15:41.419Z,8.08
2018-11-28T11:18:11.270Z,8.30
2018-11-28T11:20:39.373Z,6.97
2018-11-28T11:23:08.408Z,6.10
2018-11-28T11:25:36.018Z,5.10
2018-11-28T11:28:04.132Z,6.03
2018-11-28T11:30:31.906Z,6.17
2018-11-28T11:32:59.899Z,7.65
2018-11-28T11:35:27.882Z,7.83
2018-11-28T11:37:56.661Z,6.75
2018-11-28T11:40:24.703Z,6.35
2018-11-28T11:42:52.666Z,6.90
2018-11-28T11:45:20.839Z,8.38
2018-11-28T11:47:48.871Z,7.12
2018-11-28T11:50:18.074Z,5.30
2018-11-28T11:52:46.074Z,3.80
2018-11-28T11:55:14.306Z,4.10
2018-11-28T11:57:42.639Z,3.92
2018-11-28T12:00:15.631Z,3.10
2018-11-28T12:02:45.521Z,3.95
2018-11-28T12:05:13.605Z,4.55
2018-11-28T12:07:41.573Z,5.40
2018-11-28T12:10:10.239Z,5.70
2018-11-28T12:12:38.259Z,7.03
2018-11-28T12:22:07.267Z,6.25
2018-11-28T12:24:35.263Z,7.20
2018-11-28T12:27:03.546Z,7.10
2018-11-28T12:29:31.524Z,6.20
2018-11-28T12:31:59.584Z,7.00
2018-11-28T12:34:27.955Z,7.65
2018-11-28T12:36:55.927Z,10.78
2018-11-28T12:39:23.928Z,16.90
2018-11-28T12:41:51.932Z,16.12
2018-11-28T12:44:19.694Z,13.18
2018-11-28T12:46:47.675Z,11.18
2018-11-28T12:49:15.955Z,7.58
2018-11-28T12:51:44.227Z,10.10
2018-11-28T12:54:12.510Z,7.75
2018-11-28T12:56:40.778Z,19.55
2018-11-28T12:59:08.786Z,8.80
2018-11-28T13:01:38.152Z,9.00
2018-11-28T13:04:06.478Z,6.85
2018-11-28T13:06:34.698Z,7.03
2018-11-28T13:09:03.055Z,6.70
2018-11-28T13:11:30.817Z,4.37
2018-11-28T13:13:58.825Z,5.08
2018-11-28T13:16:26.686Z,6.05
2018-11-28T13:18:54.446Z,9.15
2018-11-28T13:21:22.722Z,14.85
2018-11-28T13:23:50.991Z,10.95
2018-11-28T13:26:19.083Z,9.43
2018-11-28T13:28:47.034Z,6.33
2018-11-28T13:31:14.991Z,4.55
2018-11-28T13:33:42.980Z,5.75
2018-11-28T13:36:10.967Z,5.28
2018-11-28T13:38:39.015Z,8.00
2018-11-28T13:41:06.773Z,7.90
2018-11-28T13:43:35.155Z,8.03
2018-11-28T13:46:07.155Z,8.73
2018-11-28T13:48:31.716Z,9.73
2018-11-28T13:50:59.484Z,8.75
2018-11-28T13:53:27.867Z,7.62
2018-11-28T13:58:25.651Z,9.13
2018-11-28T14:00:53.968Z,8.03
2018-11-28T14:03:21.714Z,9.20
2018-11-28T14:05:50.083Z,7.55
2018-11-28T14:08:18.342Z,6.30
2018-11-28T14:10:46.082Z,6.60
2018-11-28T14:13:16.113Z,5.65
2018-11-28T14:15:45.397Z,6.28
2018-11-28T14:18:14.714Z,7.70
2018-11-28T14:20:43.395Z,7.47
2018-11-28T14:23:13.367Z,8.43
2018-11-28T14:25:42.802Z,8.35
2018-11-28T14:28:12.319Z,7.05
2018-11-28T14:30:40.796Z,5.55
2018-11-28T14:33:08.818Z,6.15
2018-11-28T14:35:37.146Z,6.53
2018-11-28T14:38:05.842Z,5.05
2018-11-28T14:40:33.966Z,5.03
2018-11-28T14:43:01.977Z,5.78
2018-11-28T14:45:31.118Z,7.58
2018-11-28T14:47:59.137Z,5.37
2018-11-28T14:50:28.192Z,4.90
2018-11-28T14:52:56.634Z,4.92
2018-11-28T14:55:26.943Z,6.00
2018-11-28T14:57:54.939Z,5.05
2018-11-28T15:00:24.914Z,5.05
2018-11-28T15:02:55.018Z,6.12
2018-11-28T15:07:32.666Z,4.62
2018-11-28T15:10:00.956Z,4.33
2018-11-28T15:12:30.086Z,6.40
2018-11-28T15:14:58.102Z,6.35
2018-11-28T15:17:26.370Z,7.20
2018-11-28T15:19:54.362Z,5.08
2018-11-28T15:22:22.118Z,5.30
2018-11-28T15:24:50.075Z,5.75
2018-11-28T15:27:18.274Z,6.53
2018-11-28T15:29:46.274Z,5.70
2018-11-28T15:32:14.391Z,9.15
2018-11-28T15:34:42.358Z,6.65
2018-11-28T15:37:10.357Z,5.92
2018-11-28T15:39:38.357Z,6.83
2018-11-28T15:42:06.724Z,6.55
2018-11-28T15:44:34.724Z,7.92
2018-11-28T15:47:02.810Z,7.45
2018-11-28T15:49:31.078Z,9.73
2018-11-28T15:51:59.390Z,9.58
2018-11-28T15:54:27.158Z,9.30
2018-11-28T15:56:56.068Z,8.83
2018-11-28T15:59:24.050Z,8.48
2018-11-28T16:01:52.082Z,9.05
2018-11-28T16:04:20.134Z,9.28
2018-11-28T16:06:48.090Z,10.15
2018-11-28T16:09:21.973Z,11.28
2018-11-28T16:11:50.038Z,15.13
2018-11-28T16:14:18.045Z,13.20
2018-11-28T16:16:46.246Z,9.85
2018-11-28T16:19:14.263Z,7.33
2018-11-28T16:21:42.109Z,7.08
2018-11-28T16:24:10.269Z,8.95
2018-11-28T16:26:38.238Z,8.50
2018-11-28T16:29:06.230Z,9.60
2018-11-28T16:31:34.415Z,8.80
2018-11-28T16:34:02.174Z,7.45
2018-11-28T16:36:30.866Z,12.95
2018-11-28T16:38:59.035Z,8.95
2018-11-28T16:41:28.146Z,6.80
2018-11-28T16:43:56.129Z,9.40
2018-11-28T16:46:24.122Z,6.55
2018-11-28T16:48:52.222Z,5.75
2018-11-28T16:51:20.442Z,6.00
2018-11-28T16:53:48.250Z,6.28
2018-11-28T16:56:16.210Z,3.90
2018-11-28T16:58:48.143Z,5.40
2018-11-28T17:01:16.454Z,5.33
2018-11-28T17:03:44.209Z,5.72
2018-11-28T17:06:12.185Z,6.47
2018-11-28T17:08:40.114Z,6.92
2018-11-28T17:11:07.905Z,6.45
2018-11-28T17:13:36.154Z,5.87
2018-11-28T17:16:04.526Z,6.53
2018-11-28T17:18:32.288Z,8.10
2018-11-28T17:21:00.574Z,8.15
2018-11-28T17:23:28.866Z,8.90
2018-11-28T17:25:56.847Z,8.03
2018-11-28T17:28:24.814Z,7.83
2018-11-28T17:30:54.782Z,9.45
2018-11-28T17:33:22.827Z,18.23
2018-11-28T17:35:51.050Z,7.83
2018-11-28T17:38:19.017Z,10.10
2018-11-28T17:40:47.193Z,7.30
2018-11-28T17:43:15.454Z,9.15
2018-11-28T17:45:43.414Z,7.87
2018-11-28T17:48:12.017Z,8.30
2018-11-28T17:50:40.350Z,7.42
2018-11-28T17:53:08.830Z,8.45
2018-11-28T17:55:38.999Z,8.78
2018-11-28T17:58:06.812Z,9.38
2018-11-28T18:00:35.081Z,12.90
2018-11-28T18:03:03.215Z,10.82
2018-11-28T18:05:31.194Z,10.85
2018-11-28T18:07:59.166Z,9.45
2018-11-28T18:10:27.334Z,8.48
2018-11-28T18:13:16.339Z,8.30
2018-11-28T18:15:45.169Z,8.48
2018-11-28T18:18:14.642Z,13.68
2018-11-28T18:20:42.973Z,8.58
2018-11-28T18:23:11.227Z,8.58
2018-11-28T18:25:39.309Z,9.58
2018-11-28T18:28:08.044Z,9.18
2018-11-28T18:30:37.659Z,9.40
2018-11-28T18:33:06.235Z,8.80
2018-11-28T18:35:34.421Z,7.78
2018-11-28T18:38:02.400Z,7.12
2018-11-28T18:40:30.873Z,12.73
2018-11-28T18:42:58.897Z,7.15
2018-11-28T18:45:28.350Z,5.40
2018-11-28T18:47:56.102Z,6.05
2018-11-28T18:50:24.073Z,6.75
2018-11-28T18:52:52.053Z,6.55
2018-11-28T18:55:21.023Z,6.20
2018-11-28T18:57:50.438Z,7.00
2018-11-28T19:00:20.349Z,5.87
2018-11-28T19:02:48.734Z,5.40
2018-11-28T19:05:16.560Z,5.53
2018-11-28T19:07:44.564Z,5.30
2018-11-28T19:10:15.834Z,4.53
2018-11-28T19:12:44.132Z,5.00
2018-11-28T19:15:13.629Z,4.60
2018-11-28T19:17:42.002Z,5.85
2018-11-28T19:20:12.304Z,4.95
2018-11-28T19:22:40.554Z,4.92
2018-11-28T19:25:10.410Z,5.62
2018-11-28T19:27:40.327Z,5.08
2018-11-28T19:30:11.962Z,5.80
2018-11-28T19:32:40.212Z,5.33
2018-11-28T19:35:09.799Z,5.87
2018-11-28T19:37:38.206Z,5.35
2018-11-28T19:40:10.925Z,6.28
2018-11-28T19:42:38.857Z,7.28
2018-11-28T19:45:07.700Z,7.75
2018-11-28T19:47:35.704Z,8.63
2018-11-28T19:50:08.877Z,7.67
2018-11-28T19:52:37.035Z,9.50
2018-11-28T19:55:05.593Z,8.40
2018-11-28T19:57:34.090Z,7.25
2018-11-28T20:00:02.332Z,7.20
2018-11-28T20:02:30.534Z,6.60
2018-11-28T20:04:58.503Z,7.33
2018-11-28T20:07:26.680Z,6.65
2018-11-28T20:09:57.586Z,6.65
2018-11-28T20:12:26.456Z,9.60
2018-11-28T20:14:54.434Z,7.20
2018-11-28T20:17:22.390Z,6.90
2018-11-28T20:19:50.819Z,8.05
2018-11-28T20:22:19.199Z,8.50
2018-11-28T20:24:47.586Z,8.20
2018-11-28T20:27:15.346Z,7.58
2018-11-28T20:29:43.613Z,7.33
2018-11-28T20:32:13.124Z,7.65
2018-11-28T20:34:43.040Z,6.37
2018-11-28T20:37:11.026Z,6.97
2018-11-28T20:39:38.970Z,6.25
2018-11-28T20:42:07.070Z,6.47
2018-11-28T20:44:36.957Z,7.30
2018-11-28T20:47:06.058Z,7.33
2018-11-28T20:49:34.385Z,6.75
2018-11-28T20:52:02.675Z,8.15
2018-11-28T20:54:30.871Z,7.53
2018-11-28T20:56:58.834Z,7.17
2018-11-28T20:59:27.026Z,8.40
2018-11-28T21:01:55.323Z,8.90
2018-11-28T21:04:23.343Z,9.40
2018-11-28T21:06:51.431Z,8.15
2018-11-28T21:09:19.454Z,8.38
2018-11-28T21:11:47.279Z,8.40
2018-11-28T21:14:15.456Z,7.30
2018-11-28T21:16:43.744Z,10.20
2018-11-28T21:19:12.002Z,8.23
2018-11-28T21:21:39.981Z,7.28
2018-11-28T21:24:08.161Z,7.65
2018-11-28T21:26:36.131Z,7.42
2018-11-28T21:29:04.607Z,6.87
2018-11-28T21:31:32.634Z,7.12
2018-11-28T21:34:00.565Z,6.40
2018-11-28T21:36:28.703Z,6.97
2018-11-28T21:38:56.469Z,7.95
2018-11-28T21:41:24.444Z,7.75
2018-11-28T21:43:52.773Z,6.55
2018-11-28T21:46:21.016Z,7.22
2018-11-28T21:48:48.994Z,6.35
2018-11-28T21:51:17.167Z,7.25
2018-11-28T21:53:45.481Z,6.12
2018-11-28T21:56:13.686Z,6.78
2018-11-28T21:58:42.781Z,5.92
2018-11-28T22:01:12.298Z,5.97
2018-11-28T22:03:43.870Z,6.33
2018-11-28T22:06:12.538Z,5.53
2018-11-28T22:08:42.026Z,5.87
2018-11-28T22:11:11.951Z,5.85
2018-11-28T22:13:41.454Z,6.10
2018-11-28T22:16:11.009Z,6.37
2018-11-28T22:18:40.457Z,6.22
2018-11-28T22:21:09.969Z,5.80
2018-11-28T22:23:40.285Z,5.30
2018-11-28T22:26:09.591Z,6.55
2018-11-28T22:28:38.406Z,6.40
2018-11-28T22:31:06.750Z,5.20
2018-11-28T22:33:35.482Z,7.97
2018-11-28T22:36:05.558Z,6.05
2018-11-28T22:38:35.079Z,5.67
2018-11-28T22:41:04.374Z,6.12
2018-11-28T22:43:34.275Z,6.42
2018-11-28T22:46:03.782Z,6.12
2018-11-28T22:48:33.692Z,6.28
2018-11-28T22:51:03.214Z,6.20
2018-11-28T22:53:33.121Z,6.28
2018-11-28T22:56:03.066Z,6.17
2018-11-28T22:58:32.548Z,6.00
2018-11-28T23:01:07.915Z,5.97
2018-11-28T23:03:37.078Z,13.55
2018-11-28T23:06:05.783Z,10.90
2018-11-28T23:08:35.090Z,6.80
2018-11-28T23:11:04.363Z,6.70
2018-11-28T23:13:33.252Z,6.05
2018-11-28T23:16:02.761Z,5.53
2018-11-28T23:18:32.684Z,6.65
2018-11-28T23:21:01.362Z,5.72
2018-11-28T23:23:31.327Z,5.75
2018-11-28T23:26:01.198Z,5.75
2018-11-28T23:28:30.685Z,5.25
2018-11-28T23:31:00.407Z,6.00
2018-11-28T23:33:30.097Z,5.35
2018-11-28T23:35:59.328Z,6.28
2018-11-28T23:38:29.123Z,4.75
2018-11-28T23:40:57.389Z,4.90
2018-11-28T23:43:27.320Z,5.37
2018-11-28T23:45:56.466Z,5.35
2018-11-28T23:48:25.082Z,5.35
2018-11-28T23:50:54.590Z,4.60
2018-11-28T23:53:24.520Z,5.05
2018-11-28T23:55:54.006Z,4.70
2018-11-28T23:58:22.706Z,4.80
